createdAt,value
2018-02-08T00:02:18.064Z,79.69
2018-02-08T00:11:54.291Z,79.48
2018-02-08T00:12:58.470Z,79.60
2018-02-08T00:14:02.628Z,79.78
2018-02-08T00:17:15.970Z,80.25
2018-02-08T00:25:48.394Z,80.67
2018-02-08T00:26:54.389Z,80.89
2018-02-08T00:27:58.802Z,81.13
2018-02-08T00:29:03.237Z,81.27
2018-02-08T00:30:07.622Z,81.28
2018-02-08T00:31:11.964Z,81.14
2018-02-08T00:32:16.124Z,81.03
2018-02-08T00:33:20.679Z,81.13
2018-02-08T00:34:24.828Z,81.33
2018-02-08T00:35:28.992Z,81.59
2018-02-08T00:36:33.218Z,81.87
2018-02-08T00:37:38.312Z,82.12
2018-02-08T00:38:42.555Z,82.21
2018-02-08T00:39:47.024Z,82.21
2018-02-08T00:40:51.800Z,82.16
2018-02-08T00:41:56.002Z,81.86
2018-02-08T00:43:00.800Z,81.64
2018-02-08T00:44:05.051Z,81.57
2018-02-08T00:45:09.264Z,81.59
2018-02-08T00:46:14.152Z,81.54
2018-02-08T00:47:18.299Z,81.45
2018-02-08T00:48:22.573Z,81.48
2018-02-08T00:49:27.182Z,81.27
2018-02-08T00:50:31.410Z,80.98
2018-02-08T00:51:35.613Z,80.63
2018-02-08T00:52:39.851Z,80.35
2018-02-08T00:53:44.133Z,80.08
2018-02-08T00:54:48.380Z,79.99
2018-02-08T00:55:52.563Z,80.08
2018-02-08T00:56:56.732Z,80.14
2018-02-08T00:58:01.578Z,80.26
2018-02-08T00:59:07.260Z,80.28
2018-02-08T01:00:14.489Z,80.21
2018-02-08T01:04:06.489Z,80.26
2018-02-08T01:09:26.084Z,81.54
2018-02-08T01:10:30.788Z,81.61
2018-02-08T01:11:35.430Z,81.50
2018-02-08T01:12:39.620Z,81.43
2018-02-08T01:13:43.909Z,81.08
2018-02-08T01:14:48.068Z,80.86
2018-02-08T01:15:52.932Z,80.78
2018-02-08T01:16:57.159Z,80.50
2018-02-08T01:18:01.433Z,80.43
2018-02-08T01:19:05.612Z,80.49
2018-02-08T01:20:09.908Z,80.55
2018-02-08T01:21:14.151Z,80.59
2018-02-08T01:22:18.287Z,80.59
2018-02-08T01:23:22.549Z,80.62
2018-02-08T01:24:27.027Z,80.71
2018-02-08T01:26:26.810Z,80.75
2018-02-08T01:33:36.700Z,81.56
2018-02-08T01:34:43.670Z,81.33
2018-02-08T01:46:11.305Z,82.97
2018-02-08T01:47:15.667Z,83.27
2018-02-08T01:48:20.056Z,83.25
2018-02-08T01:49:32.993Z,83.26
2018-02-08T01:50:37.236Z,83.24
2018-02-08T01:51:41.430Z,83.25
2018-02-08T01:52:45.586Z,83.17
2018-02-08T01:53:50.162Z,82.90
2018-02-08T01:54:54.323Z,82.46
2018-02-08T01:55:58.849Z,82.07
2018-02-08T01:57:03.013Z,81.70
2018-02-08T01:58:07.130Z,81.82
2018-02-08T01:59:11.358Z,82.07
2018-02-08T02:00:17.549Z,82.18
2018-02-08T02:01:21.683Z,82.45
2018-02-08T02:02:26.147Z,82.82
2018-02-08T02:03:30.334Z,82.88
2018-02-08T02:05:29.261Z,82.98
2018-02-08T02:07:49.206Z,82.77
2018-02-08T02:08:53.402Z,82.67
2018-02-08T02:09:57.695Z,82.62
2018-02-08T02:11:01.829Z,82.59
2018-02-08T02:12:05.962Z,82.52
2018-02-08T02:13:10.083Z,82.55
2018-02-08T02:14:14.578Z,82.40
2018-02-08T02:15:19.235Z,82.20
2018-02-08T02:16:23.424Z,81.85
2018-02-08T02:17:27.597Z,81.30
2018-02-08T02:18:31.746Z,80.96
2018-02-08T02:19:35.935Z,80.80
2018-02-08T02:20:40.728Z,80.71
2018-02-08T02:24:36.078Z,80.62
2018-02-08T02:30:14.339Z,81.15
2018-02-08T02:31:18.590Z,81.74
2018-02-08T02:32:22.746Z,82.25
2018-02-08T02:33:26.890Z,82.44
2018-02-08T02:34:31.332Z,82.52
2018-02-08T02:35:35.600Z,82.40
2018-02-08T02:36:39.783Z,82.09
2018-02-08T02:37:43.949Z,81.91
2018-02-08T02:38:51.436Z,81.53
2018-02-08T02:51:45.850Z,80.57
2018-02-08T02:52:57.887Z,80.62
2018-02-08T02:54:53.931Z,80.74
2018-02-08T02:55:58.287Z,81.00
2018-02-08T02:57:02.420Z,81.37
2018-02-08T03:18:33.243Z,80.35
2018-02-08T03:19:37.454Z,80.46
2018-02-08T03:20:41.874Z,80.46
2018-02-08T03:21:47.172Z,80.69
2018-02-08T03:22:51.943Z,80.17
2018-02-08T03:23:56.194Z,79.89
2018-02-08T03:25:00.381Z,79.78
2018-02-08T03:26:04.525Z,79.65
2018-02-08T03:27:08.677Z,79.63
2018-02-08T03:28:12.835Z,79.58
2018-02-08T03:29:17.122Z,79.52
2018-02-08T03:30:21.631Z,79.37
2018-02-08T03:31:25.892Z,79.33
2018-02-08T03:32:30.036Z,79.25
2018-02-08T03:33:34.492Z,79.15
2018-02-08T03:34:38.634Z,79.00
2018-02-08T03:35:56.539Z,78.94
2018-02-08T03:37:01.230Z,78.99
2018-02-08T03:38:05.387Z,79.05
2018-02-08T03:39:09.511Z,78.92
2018-02-08T03:40:13.992Z,79.29
2018-02-08T03:41:18.202Z,78.91
2018-02-08T03:42:22.433Z,78.75
2018-02-08T03:43:26.607Z,78.78
2018-02-08T03:44:30.780Z,78.85
2018-02-08T03:45:35.362Z,78.92
2018-02-08T03:46:39.858Z,78.99
2018-02-08T03:47:44.067Z,79.25
2018-02-08T03:48:53.819Z,79.26
2018-02-08T03:58:38.557Z,79.73
2018-02-08T03:59:43.129Z,79.74
2018-02-08T04:00:47.679Z,80.14
2018-02-08T04:01:51.851Z,80.59
2018-02-08T04:02:56.035Z,80.99
2018-02-08T04:04:00.243Z,81.02
2018-02-08T04:05:04.698Z,80.69
2018-02-08T04:06:08.846Z,80.45
2018-02-08T04:07:13.023Z,80.18
2018-02-08T04:08:17.177Z,79.96
2018-02-08T04:16:51.022Z,79.86
2018-02-08T04:17:55.536Z,79.92
2018-02-08T04:18:59.970Z,79.86
2018-02-08T04:20:04.110Z,79.50
2018-02-08T04:21:08.293Z,79.24
2018-02-08T04:22:12.766Z,79.11
2018-02-08T04:23:16.895Z,79.06
2018-02-08T04:24:21.138Z,78.92
2018-02-08T04:25:25.671Z,78.86
2018-02-08T04:26:30.611Z,78.88
2018-02-08T04:27:34.794Z,78.81
2018-02-08T04:28:38.997Z,78.83
2018-02-08T04:29:43.487Z,78.89
2018-02-08T04:30:47.837Z,78.82
2018-02-08T04:35:33.722Z,78.50
2018-02-08T04:36:38.011Z,78.46
2018-02-08T04:37:42.437Z,78.50
2018-02-08T04:38:56.258Z,78.59
2018-02-08T04:42:29.958Z,78.62
2018-02-08T04:44:14.782Z,79.23
2018-02-08T04:48:18.339Z,79.79
2018-02-08T04:51:43.153Z,79.78
2018-02-08T04:52:48.130Z,79.70
2018-02-08T04:53:52.282Z,79.51
2018-02-08T04:54:56.440Z,79.44
2018-02-08T04:56:01.122Z,79.45
2018-02-08T04:57:05.570Z,79.49
2018-02-08T04:58:09.754Z,79.77
2018-02-08T04:59:13.878Z,79.86
2018-02-08T05:00:18.006Z,79.80
2018-02-08T05:01:22.189Z,79.77
2018-02-08T05:02:26.411Z,79.70
2018-02-08T05:03:30.936Z,79.73
2018-02-08T05:04:35.075Z,79.75
2018-02-08T05:05:39.265Z,79.72
2018-02-08T05:06:43.382Z,79.66
2018-02-08T05:07:47.524Z,79.66
2018-02-08T05:08:52.447Z,79.85
2018-02-08T05:09:56.882Z,79.91
2018-02-08T05:11:01.091Z,79.90
2018-02-08T05:12:05.226Z,79.98
2018-02-08T05:13:09.391Z,80.19
2018-02-08T05:14:13.515Z,80.24
2018-02-08T05:15:17.743Z,80.02
2018-02-08T05:16:21.899Z,79.79
2018-02-08T05:17:26.046Z,79.66
2018-02-08T05:18:30.247Z,79.50
2018-02-08T05:19:34.505Z,79.31
2018-02-08T05:20:38.721Z,79.38
2018-02-08T05:21:42.934Z,79.36
2018-02-08T05:22:47.532Z,79.25
2018-02-08T05:23:51.678Z,79.24
2018-02-08T05:24:55.879Z,79.35
2018-02-08T05:26:01.006Z,79.24
2018-02-08T05:27:05.699Z,79.26
2018-02-08T05:28:10.166Z,79.32
2018-02-08T05:29:14.278Z,79.31
2018-02-08T05:30:18.475Z,79.36
2018-02-08T05:31:22.740Z,79.49
2018-02-08T05:32:26.939Z,79.73
2018-02-08T05:33:31.153Z,79.78
2018-02-08T05:34:35.802Z,79.92
2018-02-08T05:35:39.970Z,80.00
2018-02-08T05:36:44.079Z,79.88
2018-02-08T05:37:48.194Z,79.62
2018-02-08T05:38:53.593Z,79.36
2018-02-08T05:39:57.815Z,79.18
2018-02-08T05:41:01.979Z,79.11
2018-02-08T05:42:06.091Z,79.09
2018-02-08T05:43:11.282Z,78.87
2018-02-08T05:44:15.395Z,78.78
2018-02-08T05:45:19.520Z,78.79
2018-02-08T05:46:23.626Z,78.75
2018-02-08T05:47:28.074Z,78.76
2018-02-08T05:48:32.285Z,78.73
2018-02-08T05:49:36.475Z,78.73
2018-02-08T05:50:40.642Z,78.71
2018-02-08T05:51:44.863Z,78.59
2018-02-08T05:52:49.054Z,78.51
2018-02-08T05:53:54.279Z,78.60
2018-02-08T05:54:58.438Z,78.71
2018-02-08T05:56:02.613Z,78.90
2018-02-08T05:57:06.749Z,78.98
2018-02-08T05:58:11.799Z,79.16
2018-02-08T05:59:16.077Z,79.29
2018-02-08T06:00:20.626Z,79.37
2018-02-08T06:01:24.740Z,79.42
2018-02-08T06:02:28.889Z,79.49
2018-02-08T06:03:33.032Z,79.48
2018-02-08T06:04:37.247Z,79.50
2018-02-08T06:05:41.395Z,79.57
2018-02-08T06:06:45.668Z,79.50
2018-02-08T06:07:49.903Z,79.47
2018-02-08T06:08:54.634Z,79.00
2018-02-08T06:09:59.903Z,78.81
2018-02-08T06:11:04.058Z,78.60
2018-02-08T06:12:15.187Z,78.41
2018-02-08T06:13:19.303Z,78.26
2018-02-08T06:14:23.479Z,78.24
2018-02-08T06:15:27.671Z,78.28
2018-02-08T06:16:31.778Z,78.30
2018-02-08T06:17:36.351Z,78.30
2018-02-08T06:18:41.125Z,78.45
2018-02-08T06:19:45.422Z,78.58
2018-02-08T06:20:49.592Z,78.83
2018-02-08T06:21:53.703Z,78.95
2018-02-08T06:22:57.864Z,79.10
2018-02-08T06:24:02.960Z,79.05
2018-02-08T06:25:07.218Z,79.06
2018-02-08T06:26:11.391Z,79.12
2018-02-08T06:27:15.537Z,79.17
2018-02-08T06:28:19.675Z,79.19
2018-02-08T06:29:23.783Z,79.36
2018-02-08T06:30:28.306Z,79.81
2018-02-08T06:31:32.488Z,80.28
2018-02-08T06:32:36.619Z,80.59
2018-02-08T06:33:47.326Z,80.67
2018-02-08T06:34:51.466Z,80.42
2018-02-08T06:35:55.606Z,80.12
2018-02-08T06:37:00.399Z,79.96
2018-02-08T06:38:04.541Z,79.85
2018-02-08T06:39:08.683Z,80.04
2018-02-08T06:40:12.903Z,80.17
2018-02-08T06:41:17.087Z,80.32
2018-02-08T06:42:21.211Z,80.19
2018-02-08T06:43:25.670Z,80.21
2018-02-08T06:44:29.794Z,80.21
2018-02-08T06:45:33.907Z,80.23
2018-02-08T06:46:38.187Z,80.23
2018-02-08T06:47:42.384Z,79.99
2018-02-08T06:48:46.689Z,79.85
2018-02-08T06:49:51.154Z,79.91
2018-02-08T06:50:55.295Z,80.02
2018-02-08T06:51:59.470Z,80.13
2018-02-08T06:53:03.675Z,80.10
2018-02-08T06:54:07.807Z,80.24
2018-02-08T06:55:12.651Z,80.24
2018-02-08T06:56:17.172Z,80.09
2018-02-08T06:57:21.358Z,79.87
2018-02-08T06:58:25.544Z,79.86
2018-02-08T06:59:29.747Z,79.87
2018-02-08T07:00:33.876Z,79.79
2018-02-08T07:01:38.018Z,79.53
2018-02-08T07:02:42.153Z,79.31
2018-02-08T07:03:46.341Z,79.16
2018-02-08T07:04:50.518Z,79.05
2018-02-08T07:05:55.893Z,78.93
2018-02-08T07:07:00.028Z,78.83
2018-02-08T07:08:04.914Z,78.77
2018-02-08T07:09:09.091Z,78.80
2018-02-08T07:10:13.190Z,78.69
2018-02-08T07:11:17.314Z,78.77
2018-02-08T07:12:21.435Z,78.59
2018-02-08T07:13:25.850Z,78.57
2018-02-08T07:14:30.023Z,78.54
2018-02-08T07:15:34.195Z,78.57
2018-02-08T07:16:38.325Z,78.63
2018-02-08T07:17:43.598Z,78.73
2018-02-08T07:18:47.808Z,78.95
2018-02-08T07:19:52.423Z,79.15
2018-02-08T07:20:57.290Z,79.45
2018-02-08T07:22:01.479Z,79.76
2018-02-08T07:23:05.619Z,79.98
2018-02-08T07:24:10.508Z,80.11
2018-02-08T07:25:14.639Z,80.32
2018-02-08T07:26:19.071Z,80.25
2018-02-08T07:27:23.243Z,80.22
2018-02-08T07:28:27.446Z,80.41
2018-02-08T07:29:31.702Z,80.62
2018-02-08T07:30:35.824Z,80.85
2018-02-08T07:31:39.943Z,81.24
2018-02-08T07:32:44.186Z,81.47
2018-02-08T07:33:48.327Z,81.50
2018-02-08T07:34:52.475Z,81.44
2018-02-08T07:35:57.259Z,81.38
2018-02-08T07:37:01.464Z,81.31
2018-02-08T07:38:06.270Z,81.24
2018-02-08T07:39:10.733Z,81.21
2018-02-08T07:40:15.682Z,81.17
2018-02-08T07:41:19.802Z,81.12
2018-02-08T07:42:23.965Z,81.05
2018-02-08T07:43:28.154Z,81.05
2018-02-08T07:44:32.310Z,81.19
2018-02-08T07:45:36.761Z,81.10
2018-02-08T07:46:40.942Z,80.87
2018-02-08T07:47:45.079Z,80.93
2018-02-08T07:48:49.273Z,80.87
2018-02-08T07:49:53.405Z,80.87
2018-02-08T07:50:58.479Z,80.42
2018-02-08T07:52:02.984Z,79.23
2018-02-08T07:53:07.151Z,78.77
2018-02-08T07:54:11.311Z,78.08
2018-02-08T07:55:16.395Z,77.25
2018-02-08T07:56:20.506Z,76.93
2018-02-08T07:57:24.629Z,76.29
2018-02-08T07:58:29.050Z,75.69
2018-02-08T07:59:33.252Z,75.00
2018-02-08T08:00:37.426Z,74.58
2018-02-08T08:01:41.566Z,73.44
2018-02-08T08:02:45.726Z,72.07
2018-02-08T08:03:49.873Z,74.09
2018-02-08T08:04:54.486Z,74.20
2018-02-08T08:05:59.286Z,75.60
2018-02-08T08:07:03.424Z,76.31
2018-02-08T08:08:07.562Z,76.86
2018-02-08T08:09:11.803Z,77.37
2018-02-08T08:10:16.846Z,77.85
2018-02-08T08:11:21.316Z,77.92
2018-02-08T08:12:25.526Z,78.07
2018-02-08T08:13:29.664Z,77.45
2018-02-08T08:14:33.824Z,76.05
2018-02-08T08:15:37.958Z,74.85
2018-02-08T08:16:42.117Z,75.47
2018-02-08T08:17:46.346Z,75.26
2018-02-08T08:18:50.835Z,76.14
2018-02-08T08:19:55.006Z,76.00
2018-02-08T08:20:59.400Z,75.00
2018-02-08T08:22:03.598Z,74.60
2018-02-08T08:23:07.812Z,73.95
2018-02-08T08:24:11.972Z,74.36
2018-02-08T08:25:16.139Z,73.70
2018-02-08T08:26:20.356Z,74.94
2018-02-08T08:27:24.534Z,75.08
2018-02-08T08:28:28.656Z,75.68
2018-02-08T08:29:33.199Z,73.76
2018-02-08T08:30:37.351Z,74.51
2018-02-08T08:31:41.521Z,73.25
2018-02-08T08:32:45.666Z,71.61
2018-02-08T08:33:49.812Z,71.29
2018-02-08T08:34:54.057Z,71.61
2018-02-08T08:35:59.233Z,72.12
2018-02-08T08:37:03.403Z,72.96
2018-02-08T08:38:07.596Z,71.08
2018-02-08T08:39:11.712Z,73.07
2018-02-08T08:40:15.843Z,73.11
2018-02-08T08:41:20.060Z,74.13
2018-02-08T08:42:24.790Z,73.95
2018-02-08T08:43:28.921Z,73.30
2018-02-08T08:44:33.107Z,73.74
2018-02-08T08:45:37.339Z,74.03
2018-02-08T08:46:41.679Z,72.81
2018-02-08T08:47:45.864Z,71.55
2018-02-08T08:48:50.438Z,72.83
2018-02-08T08:49:54.538Z,70.55
2018-02-08T08:50:59.259Z,72.01
2018-02-08T08:52:03.407Z,70.62
2018-02-08T08:53:07.532Z,71.47
2018-02-08T08:54:13.079Z,68.14
2018-02-08T08:55:17.307Z,69.90
2018-02-08T08:56:21.495Z,71.47
2018-02-08T08:57:25.867Z,66.32
2018-02-08T08:58:30.067Z,66.38
2018-02-08T08:59:34.261Z,67.88
2018-02-08T09:00:38.785Z,68.02
2018-02-08T09:01:43.045Z,63.38
2018-02-08T09:02:47.234Z,66.02
2018-02-08T09:03:51.395Z,67.75
2018-02-08T09:04:55.524Z,67.55
2018-02-08T09:06:00.656Z,68.97
2018-02-08T09:07:05.146Z,70.54
2018-02-08T09:08:09.303Z,71.32
2018-02-08T09:09:13.455Z,71.03
2018-02-08T09:10:17.838Z,71.22
2018-02-08T09:11:22.062Z,71.79
2018-02-08T09:12:26.261Z,71.26
2018-02-08T09:13:30.400Z,67.16
2018-02-08T09:14:34.644Z,64.20
2018-02-08T09:27:42.043Z,53.47
2018-02-08T09:30:29.536Z,51.72
2018-02-08T09:31:45.539Z,52.17
2018-02-08T09:32:49.808Z,56.03
2018-02-08T09:33:53.968Z,53.47
2018-02-08T09:34:59.332Z,52.75
2018-02-08T09:36:03.681Z,52.49
2018-02-08T09:37:07.934Z,50.97
2018-02-08T09:38:12.399Z,48.43
2018-02-08T09:39:16.983Z,47.06
2018-02-08T09:40:21.142Z,44.35
2018-02-08T09:41:25.673Z,44.21
2018-02-08T09:42:29.968Z,44.58
2018-02-08T09:43:34.143Z,45.09
2018-02-08T09:44:38.309Z,46.76
2018-02-08T09:45:43.024Z,47.93
2018-02-08T09:46:47.249Z,47.30
2018-02-08T09:47:51.531Z,47.10
2018-02-08T09:48:55.701Z,47.65
2018-02-08T09:50:00.886Z,48.15
2018-02-08T09:51:05.403Z,48.43
2018-02-08T09:52:11.481Z,49.29
2018-02-08T09:53:15.735Z,50.58
2018-02-08T09:54:20.779Z,50.11
2018-02-08T09:55:27.031Z,50.06
2018-02-08T09:56:31.521Z,49.82
2018-02-08T09:57:35.719Z,50.25
2018-02-08T09:58:39.903Z,47.91
2018-02-08T09:59:44.216Z,47.99
2018-02-08T10:00:48.816Z,47.68
2018-02-08T10:01:53.017Z,48.38
2018-02-08T10:02:57.489Z,48.00
2018-02-08T10:04:01.679Z,48.24
2018-02-08T10:05:06.020Z,47.49
2018-02-08T10:06:10.238Z,48.00
2018-02-08T10:07:14.371Z,48.92
2018-02-08T10:08:18.515Z,48.99
2018-02-08T10:09:24.265Z,47.67
2018-02-08T10:10:28.503Z,46.89
2018-02-08T10:11:32.677Z,47.33
2018-02-08T10:12:36.824Z,47.50
2018-02-08T10:13:40.956Z,48.61
2018-02-08T10:14:45.177Z,48.82
2018-02-08T10:15:49.924Z,50.04
2018-02-08T10:16:54.227Z,49.65
2018-02-08T10:17:58.409Z,49.23
2018-02-08T10:19:03.134Z,49.50
2018-02-08T10:20:07.354Z,48.68
2018-02-08T10:21:11.741Z,47.50
2018-02-08T10:22:16.259Z,47.94
2018-02-08T10:23:20.457Z,47.62
2018-02-08T10:24:25.449Z,46.24
2018-02-08T10:25:29.720Z,46.97
2018-02-08T10:26:49.036Z,46.53
2018-02-08T10:27:53.936Z,46.53
2018-02-08T10:28:58.150Z,46.26
2018-02-08T10:30:04.668Z,47.09
2018-02-08T10:31:09.180Z,48.02
2018-02-08T10:32:13.477Z,46.14
2018-02-08T10:33:17.781Z,45.86
2018-02-08T10:34:22.887Z,46.33
2018-02-08T10:35:28.125Z,46.29
2018-02-08T10:36:32.378Z,46.46
2018-02-08T10:37:36.866Z,47.16
2018-02-08T10:38:41.043Z,46.57
2018-02-08T10:39:45.544Z,44.54
2018-02-08T10:40:49.885Z,45.82
2018-02-08T10:41:54.141Z,46.84
2018-02-08T10:42:58.335Z,46.77
2018-02-08T10:44:03.428Z,45.81
2018-02-08T10:45:07.633Z,45.91
2018-02-08T10:46:12.291Z,46.27
2018-02-08T10:47:16.644Z,46.35
2018-02-08T10:48:20.838Z,45.59
2018-02-08T10:49:26.158Z,45.53
2018-02-08T10:50:30.749Z,46.24
2018-02-08T10:51:34.936Z,46.05
2018-02-08T10:52:39.565Z,46.22
2018-02-08T10:53:43.799Z,47.75
2018-02-08T10:54:48.060Z,48.48
2018-02-08T10:55:52.289Z,48.70
2018-02-08T10:56:56.713Z,48.53
2018-02-08T10:58:00.876Z,48.78
2018-02-08T10:59:05.048Z,47.21
2018-02-08T11:00:09.409Z,46.50
2018-02-08T11:01:13.940Z,45.83
2018-02-08T11:02:18.105Z,45.96
2018-02-08T11:03:22.284Z,45.47
2018-02-08T11:04:26.902Z,43.20
2018-02-08T11:05:31.096Z,41.05
2018-02-08T11:06:35.308Z,41.59
2018-02-08T11:07:39.658Z,42.06
2018-02-08T11:08:43.887Z,43.39
2018-02-08T11:09:48.303Z,42.24
2018-02-08T11:10:53.039Z,42.12
2018-02-08T11:11:57.243Z,42.07
2018-02-08T11:13:01.375Z,42.52
2018-02-08T11:14:06.519Z,42.30
2018-02-08T11:15:12.782Z,42.13
2018-02-08T11:16:17.555Z,42.78
2018-02-08T11:17:21.868Z,43.10
2018-02-08T11:18:26.912Z,42.42
2018-02-08T11:19:31.172Z,42.39
2018-02-08T11:20:35.299Z,42.35
2018-02-08T11:21:39.445Z,43.00
2018-02-08T11:22:44.156Z,43.08
2018-02-08T11:23:48.372Z,43.43
2018-02-08T11:24:52.572Z,43.71
2018-02-08T11:25:56.807Z,42.55
2018-02-08T11:27:01.032Z,42.54
2018-02-08T11:28:05.292Z,42.87
2018-02-08T11:29:09.956Z,43.18
2018-02-08T11:30:16.718Z,42.85
2018-02-08T11:31:21.113Z,42.66
2018-02-08T11:32:26.119Z,43.32
2018-02-08T11:33:30.819Z,42.55
2018-02-08T11:34:35.829Z,42.32
2018-02-08T11:35:40.039Z,43.34
2018-02-08T11:36:44.205Z,43.68
2018-02-08T11:37:48.380Z,42.19
2018-02-08T11:38:52.772Z,43.25
2018-02-08T11:39:57.037Z,43.29
2018-02-08T11:41:01.473Z,44.38
2018-02-08T11:42:06.424Z,44.73
2018-02-08T11:43:10.695Z,44.59
2018-02-08T11:44:14.868Z,44.31
2018-02-08T11:45:19.926Z,45.21
2018-02-08T11:46:24.155Z,45.87
2018-02-08T11:47:31.990Z,46.50
2018-02-08T11:48:36.829Z,46.25
2018-02-08T11:49:41.028Z,46.50
2018-02-08T11:50:45.269Z,47.04
2018-02-08T11:51:49.445Z,47.36
2018-02-08T11:52:53.703Z,46.82
2018-02-08T11:53:57.942Z,47.03
2018-02-08T11:55:02.184Z,45.32
2018-02-08T11:56:06.324Z,45.59
2018-02-08T11:57:10.467Z,44.98
2018-02-08T11:58:15.797Z,44.67
2018-02-08T11:59:21.160Z,44.79
2018-02-08T12:00:25.755Z,45.36
2018-02-08T12:01:29.957Z,45.89
2018-02-08T12:02:34.207Z,45.67
2018-02-08T12:03:38.368Z,45.84
2018-02-08T12:04:42.596Z,46.09
2018-02-08T12:05:46.782Z,45.67
2018-02-08T12:06:50.972Z,45.12
2018-02-08T12:07:55.195Z,44.69
2018-02-08T12:08:59.478Z,44.11
2018-02-08T12:10:03.761Z,45.39
2018-02-08T12:11:07.965Z,46.38
2018-02-08T12:12:12.491Z,47.37
2018-02-08T12:13:16.716Z,48.04
2018-02-08T12:14:21.726Z,48.63
2018-02-08T12:15:26.043Z,48.98
2018-02-08T12:16:30.306Z,48.47
2018-02-08T12:17:35.287Z,48.29
2018-02-08T12:18:39.982Z,47.52
2018-02-08T12:19:44.263Z,45.69
2018-02-08T12:20:49.186Z,46.26
2018-02-08T12:21:53.376Z,47.43
2018-02-08T12:22:57.660Z,47.28
2018-02-08T12:24:02.058Z,47.69
2018-02-08T12:25:06.572Z,48.04
2018-02-08T12:26:10.856Z,48.34
2018-02-08T12:27:15.221Z,47.62
2018-02-08T12:28:20.264Z,47.62
2018-02-08T12:29:24.582Z,47.98
2018-02-08T12:30:29.152Z,47.50
2018-02-08T12:31:34.521Z,46.11
2018-02-08T12:32:38.814Z,44.48
2018-02-08T12:33:42.982Z,43.34
2018-02-08T12:34:47.311Z,42.86
2018-02-08T12:35:51.787Z,41.68
2018-02-08T12:36:56.180Z,43.17
2018-02-08T12:38:00.372Z,42.14
2018-02-08T12:39:05.134Z,43.53
2018-02-08T12:40:09.384Z,44.03
2018-02-08T12:41:13.582Z,44.77
2018-02-08T12:42:18.105Z,44.83
2018-02-08T12:43:22.281Z,45.27
2018-02-08T12:44:26.528Z,45.85
2018-02-08T12:45:31.028Z,46.68
2018-02-08T12:46:35.325Z,46.17
2018-02-08T12:47:39.580Z,46.76
2018-02-08T12:48:45.180Z,46.69
2018-02-08T12:49:49.363Z,47.63
2018-02-08T12:50:53.636Z,46.91
2018-02-08T12:51:57.901Z,46.65
2018-02-08T12:53:02.137Z,46.29
2018-02-08T12:54:06.386Z,46.03
2018-02-08T12:55:11.079Z,45.40
2018-02-08T12:56:15.281Z,44.66
2018-02-08T12:57:19.499Z,44.63
2018-02-08T12:58:23.769Z,43.86
2018-02-08T12:59:28.868Z,43.94
2018-02-08T13:00:33.445Z,44.59
2018-02-08T13:01:38.084Z,45.35
2018-02-08T13:02:42.328Z,45.44
2018-02-08T13:03:46.715Z,45.02
2018-02-08T13:04:52.139Z,44.44
2018-02-08T13:05:56.322Z,43.25
2018-02-08T13:07:00.579Z,40.94
2018-02-08T13:08:05.067Z,41.72
2018-02-08T13:09:09.558Z,42.93
2018-02-08T13:10:13.848Z,42.78
2018-02-08T13:11:18.045Z,42.16
2018-02-08T13:12:22.266Z,41.04
2018-02-08T13:13:27.255Z,40.23
2018-02-08T13:14:31.799Z,40.79
2018-02-08T13:15:36.403Z,41.80
2018-02-08T13:16:41.040Z,42.93
2018-02-08T13:17:45.390Z,43.52
2018-02-08T13:18:49.561Z,44.44
2018-02-08T13:19:53.713Z,44.98
2018-02-08T13:20:58.270Z,44.80
2018-02-08T13:22:02.462Z,44.30
2018-02-08T13:23:06.875Z,44.42
2018-02-08T13:24:11.129Z,43.32
2018-02-08T13:25:15.418Z,43.70
2018-02-08T13:26:19.944Z,43.41
2018-02-08T13:27:24.156Z,41.41
2018-02-08T13:28:29.029Z,42.48
2018-02-08T13:29:33.201Z,39.72
2018-02-08T13:30:37.655Z,42.37
2018-02-08T13:31:42.351Z,42.30
2018-02-08T13:32:47.208Z,42.37
2018-02-08T13:33:52.538Z,41.60
2018-02-08T13:34:56.748Z,41.99
2018-02-08T13:36:00.957Z,41.89
2018-02-08T13:37:05.344Z,42.46
2018-02-08T13:38:10.363Z,44.20
2018-02-08T13:39:15.045Z,44.62
2018-02-08T13:40:19.565Z,44.48
2018-02-08T13:41:23.898Z,44.34
2018-02-08T13:42:29.013Z,44.14
2018-02-08T13:43:33.369Z,44.23
2018-02-08T13:44:37.760Z,44.40
2018-02-08T13:45:42.167Z,43.96
2018-02-08T13:46:46.793Z,43.17
2018-02-08T13:47:51.368Z,43.71
2018-02-08T13:48:56.492Z,44.02
2018-02-08T13:50:01.962Z,43.45
2018-02-08T13:51:08.518Z,43.60
2018-02-08T13:52:13.153Z,42.42
2018-02-08T13:53:17.496Z,42.82
2018-02-08T13:54:22.459Z,42.27
2018-02-08T13:55:26.859Z,44.86
2018-02-08T13:56:31.234Z,44.71
2018-02-08T13:57:36.978Z,44.83
2018-02-08T13:58:41.288Z,45.45
2018-02-08T13:59:45.653Z,46.10
2018-02-08T14:02:05.572Z,45.07
2018-02-08T14:03:10.393Z,45.07
2018-02-08T14:04:14.963Z,45.43
2018-02-08T14:05:19.135Z,45.73
2018-02-08T14:06:23.438Z,45.43
2018-02-08T14:07:29.275Z,46.01
2018-02-08T14:08:33.563Z,45.74
2018-02-08T14:09:37.770Z,45.62
2018-02-08T14:10:42.351Z,45.43
2018-02-08T14:11:46.640Z,44.02
2018-02-08T14:12:50.836Z,44.53
2018-02-08T14:13:55.145Z,44.23
2018-02-08T14:14:59.335Z,44.46
2018-02-08T14:16:03.588Z,45.18
2018-02-08T14:17:08.101Z,45.59
2018-02-08T14:18:12.468Z,45.45
2018-02-08T14:19:16.732Z,46.08
2018-02-08T14:20:21.065Z,46.64
2018-02-08T14:21:25.225Z,46.96
2018-02-08T14:22:30.131Z,46.65
2018-02-08T14:23:34.713Z,46.34
2018-02-08T14:24:38.991Z,46.30
2018-02-08T14:25:43.267Z,46.24
2018-02-08T14:26:47.498Z,46.79
2018-02-08T14:27:51.712Z,46.97
2018-02-08T14:28:55.889Z,46.85
2018-02-08T14:30:00.504Z,46.59
2018-02-08T14:31:05.225Z,47.09
2018-02-08T14:32:09.666Z,45.18
2018-02-08T14:33:14.025Z,45.61
2018-02-08T14:34:18.276Z,45.08
2018-02-08T14:35:22.667Z,46.37
2018-02-08T14:36:26.930Z,47.26
2018-02-08T14:37:32.046Z,47.46
2018-02-08T14:38:36.268Z,47.46
2018-02-08T14:39:40.500Z,46.85
2018-02-08T14:40:44.773Z,46.62
2018-02-08T14:41:48.947Z,46.50
2018-02-08T14:42:53.489Z,46.06
2018-02-08T14:43:58.064Z,46.48
2018-02-08T14:45:05.031Z,46.28
2018-02-08T14:46:09.514Z,46.31
2018-02-08T14:47:13.777Z,47.24
2018-02-08T14:48:18.018Z,47.58
2018-02-08T14:49:22.494Z,47.73
2018-02-08T14:50:26.625Z,46.84
2018-02-08T14:51:31.616Z,46.25
2018-02-08T14:52:35.832Z,46.90
2018-02-08T14:53:40.125Z,47.69
2018-02-08T14:54:44.333Z,48.03
2018-02-08T14:55:48.897Z,48.32
2018-02-08T14:56:53.103Z,47.91
2018-02-08T14:57:58.459Z,48.72
2018-02-08T14:59:03.543Z,48.13
2018-02-08T15:00:08.217Z,48.27
2018-02-08T15:01:12.753Z,48.00
2018-02-08T15:02:17.006Z,48.69
2018-02-08T15:03:21.364Z,48.19
2018-02-08T15:04:25.613Z,47.57
2018-02-08T15:05:30.680Z,46.60
2018-02-08T15:06:34.999Z,46.46
2018-02-08T15:07:39.781Z,46.91
2018-02-08T15:08:44.069Z,47.82
2018-02-08T15:09:48.385Z,47.53
2018-02-08T15:10:52.667Z,46.84
2018-02-08T15:11:56.824Z,47.37
2018-02-08T15:13:01.909Z,48.05
2018-02-08T15:14:06.516Z,48.29
2018-02-08T15:15:12.849Z,47.93
2018-02-08T15:16:17.463Z,46.25
2018-02-08T15:17:21.835Z,45.08
2018-02-08T15:18:26.757Z,45.17
2018-02-08T15:19:31.973Z,46.05
2018-02-08T15:20:36.532Z,46.36
2018-02-08T15:21:40.796Z,47.63
2018-02-08T15:22:45.262Z,48.52
2018-02-08T15:23:50.080Z,49.16
2018-02-08T15:24:54.397Z,49.45
2018-02-08T15:25:59.560Z,49.65
2018-02-08T15:27:03.838Z,49.92
2018-02-08T15:28:08.144Z,50.12
2018-02-08T15:29:12.562Z,49.42
2018-02-08T15:30:17.290Z,49.33
2018-02-08T15:31:21.527Z,48.68
2018-02-08T15:32:25.699Z,49.34
2018-02-08T15:33:31.020Z,48.68
2018-02-08T15:34:35.323Z,48.58
2018-02-08T15:35:39.533Z,48.77
2018-02-08T15:36:43.722Z,48.90
2018-02-08T15:37:47.938Z,49.23
2018-02-08T15:38:52.229Z,50.50
2018-02-08T15:39:56.820Z,50.86
2018-02-08T15:41:01.658Z,51.00
2018-02-08T15:42:06.733Z,51.18
2018-02-08T15:43:11.266Z,50.82
2018-02-08T15:44:15.639Z,50.79
2018-02-08T15:45:20.113Z,51.59
2018-02-08T15:46:24.920Z,51.52
2018-02-08T15:47:29.924Z,51.72
2018-02-08T15:48:34.179Z,51.66
2018-02-08T15:49:38.479Z,52.14
2018-02-08T15:50:42.818Z,53.33
2018-02-08T15:51:47.193Z,54.22
2018-02-08T15:52:51.563Z,54.21
2018-02-08T15:53:56.268Z,54.67
2018-02-08T15:55:01.170Z,54.75
2018-02-08T15:56:05.388Z,54.15
2018-02-08T15:57:09.778Z,53.71
2018-02-08T15:58:14.057Z,54.23
2018-02-08T15:59:18.359Z,54.23
2018-02-08T16:00:22.636Z,55.03
2018-02-08T16:01:27.045Z,56.36